Time;durP1;ratioP1;P1;durP2;ratioP2;P2;SDS_P1;SDS_P2;PMS_P1;PMS_P2;Temp;Humidity;BMP_temperature;BMP_pressure;BME280_temperature;BME280_humidity;BME280_pressure;Samples;Min_cycle;Max_cycle;Signal;HPM_P1;HPM_P2
2023/08/16 00:02:13;;;;;;;11.82;3.85;;;;;;;18.21;100.00;101350.91;5095739;28;20108;-66
2023/08/16 00:04:38;;;;;;;11.75;3.55;;;;;;;18.10;100.00;101335.41;5095790;28;20040;-67
2023/08/16 00:07:03;;;;;;;9.57;3.38;;;;;;;18.17;100.00;101347.81;5077335;28;20032;-68
2023/08/16 00:09:29;;;;;;;11.60;3.08;;;;;;;18.17;100.00;101350.53;5077507;28;20444;-67
2023/08/16 00:11:54;;;;;;;8.93;3.00;;;;;;;18.19;100.00;101350.31;5095928;28;20425;-68
2023/08/16 00:14:20;;;;;;;10.85;3.20;;;;;;;18.19;100.00;101351.16;5093743;28;20036;-66
2023/08/16 00:16:46;;;;;;;12.32;2.90;;;;;;;18.19;100.00;101350.31;5093767;28;20024;-66
2023/08/16 00:19:12;;;;;;;8.95;3.10;;;;;;;18.20;100.00;101352.81;5094039;28;20062;-70
2023/08/16 00:21:37;;;;;;;9.75;2.85;;;;;;;18.19;100.00;101345.69;5093147;28;20057;-66
2023/08/16 00:24:06;;;;;;;11.25;3.35;;;;;;;18.14;100.00;101337.41;5093902;28;20024;-71
2023/08/16 00:26:31;;;;;;;13.38;2.83;;;;;;;18.20;100.00;101347.34;5095531;28;20373;-66
2023/08/16 00:28:57;;;;;;;13.63;2.80;;;;;;;18.23;100.00;101343.34;5096436;28;20478;-67
2023/08/16 00:31:22;;;;;;;9.90;2.97;;;;;;;18.27;100.00;101352.69;5095935;28;20035;-66
2023/08/16 00:33:48;;;;;;;10.45;2.63;;;;;;;18.22;100.00;101337.06;5097360;28;20028;-67
2023/08/16 00:36:14;;;;;;;9.55;2.53;;;;;;;18.29;100.00;101332.31;5076471;28;20060;-66
2023/08/16 00:38:42;;;;;;;12.40;2.72;;;;;;;18.40;100.00;101347.00;5092708;28;20126;-67
2023/08/16 00:41:14;;;;;;;10.43;2.65;;;;;;;18.21;100.00;101307.31;5096742;28;20465;-66
2023/08/16 00:43:40;;;;;;;8.38;2.38;;;;;;;18.49;100.00;101351.03;5096590;28;20100;-66
2023/08/16 00:46:11;;;;;;;10.27;2.60;;;;;;;18.53;100.00;101349.47;5095081;28;20023;-66
2023/08/16 00:48:38;;;;;;;8.63;2.20;;;;;;;18.61;100.00;101361.06;5078494;28;20031;-67
2023/08/16 00:51:05;;;;;;;7.38;2.30;;;;;;;18.68;100.00;101356.34;5096209;28;20059;-67
2023/08/16 00:53:32;;;;;;;8.45;2.40;;;;;;;18.72;100.00;101354.81;5096568;28;20101;-66
2023/08/16 00:55:58;;;;;;;8.93;2.45;;;;;;;18.81;100.00;101357.97;5093729;28;20086;-66
2023/08/16 00:58:25;;;;;;;12.38;2.55;;;;;;;18.84;100.00;101361.09;5101442;28;20027;-66
2023/08/16 01:00:51;;;;;;;11.13;2.78;;;;;;;18.92;100.00;101365.31;5102178;28;20027;-66
2023/08/16 01:03:16;;;;;;;7.30;2.33;;;;;;;18.90;100.00;101345.63;5100889;28;20050;-67
2023/08/16 01:05:41;;;;;;;16.33;2.80;;;;;;;19.07;100.00;101362.06;5101800;28;20028;-67
2023/08/16 01:08:07;;;;;;;9.77;2.38;;;;;;;19.07;100.00;101357.44;5100691;28;20666;-67
2023/08/16 01:10:44;;;;;;;10.18;2.45;;;;;;;19.06;100.00;101360.41;5084269;28;20111;-67
2023/08/16 01:13:18;;;;;;;11.00;2.40;;;;;;;19.14;100.00;101363.59;5102397;28;20020;-66
2023/08/16 01:15:48;;;;;;;14.98;3.22;;;;;;;19.20;100.00;101361.78;5101898;28;20032;-66
2023/08/16 01:18:15;;;;;;;14.40;2.78;;;;;;;19.15;100.00;101348.88;5100747;28;20474;-70
2023/08/16 01:20:41;;;;;;;15.40;2.60;;;;;;;19.23;100.00;101364.03;5101825;28;20032;-67
2023/08/16 01:23:12;;;;;;;10.27;2.20;;;;;;;19.23;100.00;101372.22;5101926;28;20504;-66
2023/08/16 01:25:49;;;;;;;8.68;2.08;;;;;;;19.28;100.00;101364.16;5099847;28;20656;-74
2023/08/16 01:28:16;;;;;;;11.90;2.50;;;;;;;19.35;100.00;101364.00;5103114;28;20086;-67
2023/08/16 01:30:45;;;;;;;14.68;2.65;;;;;;;19.41;100.00;101371.22;5103426;28;20027;-66
2023/08/16 01:33:12;;;;;;;12.07;3.03;;;;;;;19.41;100.00;101365.75;5084375;28;20034;-66
2023/08/16 01:35:38;;;;;;;10.02;2.35;;;;;;;19.42;100.00;101359.22;5099615;28;20025;-67
2023/08/16 01:38:05;;;;;;;11.20;2.35;;;;;;;19.45;100.00;101361.47;5101158;28;20251;-70
2023/08/16 01:40:37;;;;;;;9.25;2.08;;;;;;;19.51;100.00;101354.19;5101955;28;20028;-66
2023/08/16 01:43:06;;;;;;;11.23;2.72;;;;;;;19.57;100.00;101354.06;5098545;28;20359;-66
2023/08/16 01:45:33;;;;;;;10.88;2.28;;;;;;;19.56;100.00;101352.38;5100525;28;20463;-67
2023/08/16 01:48:00;;;;;;;8.13;2.30;;;;;;;19.59;100.00;101356.50;5097818;28;20035;-67
2023/08/16 01:50:25;;;;;;;12.55;2.95;;;;;;;19.66;100.00;101351.75;5101200;28;20083;-73
2023/08/16 01:52:51;;;;;;;9.85;2.35;;;;;;;19.63;100.00;101361.25;5102249;28;20028;-67
2023/08/16 01:55:17;;;;;;;10.25;2.67;;;;;;;19.67;100.00;101359.72;5101322;28;20035;-69
2023/08/16 01:57:42;;;;;;;13.70;2.63;;;;;;;19.71;100.00;101365.50;5083638;28;20477;-69
2023/08/16 02:00:09;;;;;;;14.95;2.70;;;;;;;19.70;100.00;101367.41;5082604;28;20032;-67
2023/08/16 02:02:36;;;;;;;10.23;2.20;;;;;;;19.58;100.00;101352.97;5100653;28;20036;-67
2023/08/16 02:05:02;;;;;;;10.32;2.63;;;;;;;19.64;100.00;101376.59;5100522;28;20107;-74
2023/08/16 02:07:27;;;;;;;12.18;2.72;;;;;;;19.64;100.00;101373.84;5100962;28;20131;-67
2023/08/16 02:09:53;;;;;;;11.00;2.63;;;;;;;19.70;100.00;101383.81;5095657;28;20054;-66
2023/08/16 02:12:18;;;;;;;16.77;2.95;;;;;;;19.76;100.00;101379.25;5080445;28;20051;-67
2023/08/16 02:14:43;;;;;;;10.23;2.67;;;;;;;19.68;100.00;101372.28;5098419;28;20390;-66
2023/08/16 02:17:09;;;;;;;9.13;2.58;;;;;;;19.75;100.00;101379.50;5096842;28;20032;-66
2023/08/16 02:19:34;;;;;;;15.70;2.85;;;;;;;19.72;100.00;101380.81;5096960;28;20541;-65
2023/08/16 02:21:59;;;;;;;13.43;2.85;;;;;;;19.63;100.00;101366.72;5079844;28;20390;-66
2023/08/16 02:24:25;;;;;;;9.18;2.50;;;;;;;19.69;100.00;101381.31;5080282;28;20020;-67
2023/08/16 02:26:50;;;;;;;13.90;2.63;;;;;;;19.66;100.00;101381.78;5080909;28;20049;-66
2023/08/16 02:29:16;;;;;;;7.70;2.10;;;;;;;19.69;100.00;101376.66;5098911;28;20514;-72
2023/08/16 02:31:41;;;;;;;13.52;2.45;;;;;;;19.76;100.00;101384.69;5094246;28;20165;-66
2023/08/16 02:34:07;;;;;;;11.30;2.30;;;;;;;19.77;100.00;101375.44;5098884;28;20035;-68
2023/08/16 02:36:34;;;;;;;10.63;2.13;;;;;;;19.69;100.00;101387.59;5099044;28;20085;-69
2023/08/16 02:39:00;;;;;;;14.18;2.88;;;;;;;19.78;100.00;101387.19;5097634;28;20106;-67
2023/08/16 02:41:25;;;;;;;10.25;2.47;;;;;;;19.84;100.00;101378.03;5098282;28;20069;-66
2023/08/16 02:43:51;;;;;;;12.40;3.08;;;;;;;19.82;100.00;101377.44;5097351;28;20035;-67
2023/08/16 02:46:16;;;;;;;14.95;2.90;;;;;;;19.67;100.00;101376.09;5098636;28;20016;-66
2023/08/16 02:48:42;;;;;;;16.15;2.95;;;;;;;19.78;100.00;101376.28;5080019;28;20070;-67
2023/08/16 02:51:07;;;;;;;14.68;2.78;;;;;;;19.76;100.00;101370.22;5097853;28;20052;-67
2023/08/16 02:53:33;;;;;;;12.52;2.70;;;;;;;19.80;100.00;101374.97;5098822;28;20074;-67
2023/08/16 02:55:58;;;;;;;16.63;2.45;;;;;;;19.70;100.00;101359.22;5079485;28;20034;-69
2023/08/16 02:58:23;;;;;;;12.43;2.65;;;;;;;19.87;100.00;101383.81;5097280;28;20503;-66
2023/08/16 03:00:53;;;;;;;12.27;2.50;;;;;;;19.87;100.00;101381.09;5098722;28;20059;-67
2023/08/16 03:03:19;;;;;;;14.75;2.63;;;;;;;19.79;100.00;101383.38;5080851;28;20036;-69
2023/08/16 03:05:44;;;;;;;8.88;2.15;;;;;;;19.80;100.00;101385.03;5098000;28;20024;-67
2023/08/16 03:08:10;;;;;;;12.45;2.40;;;;;;;19.84;100.00;101375.28;5097255;28;20461;-67
2023/08/16 03:10:35;;;;;;;17.52;2.83;;;;;;;19.80;100.00;101376.84;5097050;28;20026;-70
2023/08/16 03:13:00;;;;;;;10.20;2.35;;;;;;;19.55;100.00;101338.97;5102829;28;20028;-67
2023/08/16 03:15:26;;;;;;;13.45;2.50;;;;;;;19.76;100.00;101387.44;5101333;28;20032;-69
2023/08/16 03:17:51;;;;;;;9.65;2.22;;;;;;;19.78;100.00;101390.75;5096747;28;20107;-66
2023/08/16 03:20:17;;;;;;;14.10;2.40;;;;;;;19.77;100.00;101383.66;5093100;28;20044;-68
2023/08/16 03:22:42;;;;;;;12.00;2.40;;;;;;;19.74;100.00;101380.59;5097639;28;20602;-67
2023/08/16 03:25:08;;;;;;;15.10;2.70;;;;;;;19.65;100.00;101378.22;5097200;28;20032;-67
2023/08/16 03:27:34;;;;;;;10.95;2.33;;;;;;;19.72;100.00;101380.81;5094961;28;20506;-67
2023/08/16 03:29:59;;;;;;;14.02;2.90;;;;;;;19.75;100.00;101371.31;5092652;28;20032;-66
2023/08/16 03:32:25;;;;;;;13.90;2.35;;;;;;;19.65;100.00;101369.22;5096400;28;20104;-66
2023/08/16 03:34:50;;;;;;;15.20;2.80;;;;;;;19.61;100.00;101366.13;5095088;28;20028;-67
2023/08/16 03:37:15;;;;;;;14.13;2.63;;;;;;;19.64;100.00;101379.31;5096157;28;20372;-66
2023/08/16 03:39:41;;;;;;;10.05;2.30;;;;;;;19.62;100.00;101381.41;5094777;28;20551;-67
2023/08/16 03:42:06;;;;;;;13.88;2.60;;;;;;;19.65;100.00;101383.69;5095097;28;20028;-66
2023/08/16 03:44:32;;;;;;;12.27;2.65;;;;;;;19.57;100.00;101389.53;5079508;28;20055;-67
2023/08/16 03:46:57;;;;;;;14.98;2.72;;;;;;;19.68;100.00;101394.13;5096818;28;20028;-67
2023/08/16 03:49:23;;;;;;;10.50;2.60;;;;;;;19.65;100.00;101393.78;5096924;28;20056;-67
2023/08/16 03:51:48;;;;;;;12.48;2.33;;;;;;;19.68;100.00;101391.41;5096003;28;20032;-66
2023/08/16 03:54:13;;;;;;;15.95;2.70;;;;;;;19.63;100.00;101399.47;5097299;28;20032;-67
2023/08/16 03:56:39;;;;;;;16.92;2.65;;;;;;;19.53;100.00;101399.25;5096114;28;20024;-67
2023/08/16 03:59:04;;;;;;;11.82;2.80;;;;;;;19.60;100.00;101401.84;5095689;28;20128;-67
2023/08/16 04:01:30;;;;;;;17.40;3.15;;;;;;;19.52;100.00;101386.69;5077734;28;20505;-67
2023/08/16 04:03:56;;;;;;;8.48;2.60;;;;;;;19.47;100.00;101409.28;5076141;28;20490;-66
2023/08/16 04:06:21;;;;;;;14.85;2.67;;;;;;;19.35;100.00;101375.75;5093586;28;20020;-65
2023/08/16 04:08:47;;;;;;;11.75;2.90;;;;;;;19.47;100.00;101400.25;5094405;28;20024;-66
2023/08/16 04:11:12;;;;;;;18.98;3.42;;;;;;;19.51;100.00;101406.88;5097072;28;20024;-67
2023/08/16 04:13:38;;;;;;;17.02;3.28;;;;;;;19.56;100.00;101404.25;5094359;28;20040;-67
2023/08/16 04:16:03;;;;;;;15.45;2.95;;;;;;;19.53;100.00;101399.25;5077390;28;20517;-66
2023/08/16 04:18:29;;;;;;;18.75;3.60;;;;;;;19.53;100.00;101399.25;5101298;28;20042;-70
2023/08/16 04:20:55;;;;;;;18.15;3.17;;;;;;;19.57;100.00;101400.47;5097106;28;20093;-69
2023/08/16 04:23:22;;;;;;;16.73;3.47;;;;;;;19.43;100.00;101408.09;5097127;28;20023;-68
2023/08/16 04:25:47;;;;;;;15.00;3.20;;;;;;;19.39;100.00;101400.63;5093713;28;20028;-66
2023/08/16 04:28:13;;;;;;;14.57;2.88;;;;;;;19.53;100.00;101402.00;5093231;28;20475;-67
2023/08/16 04:30:38;;;;;;;12.73;2.38;;;;;;;19.54;100.00;101408.31;5077621;28;20599;-68
2023/08/16 04:33:04;;;;;;;9.10;2.30;;;;;;;19.52;100.00;101407.72;5077938;28;20028;-66
2023/08/16 04:35:29;;;;;;;13.95;2.75;;;;;;;19.61;100.00;101408.97;5096146;28;20050;-67
2023/08/16 04:37:55;;;;;;;7.60;1.70;;;;;;;19.61;100.00;101406.25;5095212;28;20036;-68
2023/08/16 04:40:20;;;;;;;10.93;2.10;;;;;;;19.41;100.00;101412.97;5096213;28;20028;-68
2023/08/16 04:42:46;;;;;;;12.73;2.13;;;;;;;19.41;100.00;101396.59;5095817;28;20032;-67
2023/08/16 04:45:11;;;;;;;9.13;2.20;;;;;;;19.39;100.00;101403.38;5094161;28;20024;-68
2023/08/16 04:47:37;;;;;;;12.77;2.58;;;;;;;19.58;100.00;101413.03;5078081;28;20032;-68
2023/08/16 04:50:06;;;;;;;12.93;2.78;;;;;;;19.58;100.00;101412.19;5094653;28;20146;-68
2023/08/16 04:52:35;;;;;;;12.57;2.80;;;;;;;19.65;100.00;101410.19;5094281;28;20049;-68
2023/08/16 04:55:01;;;;;;;17.13;2.90;;;;;;;19.64;100.00;101417.53;5095178;28;20074;-68
2023/08/16 04:57:27;;;;;;;13.18;2.63;;;;;;;19.44;100.00;101398.03;5095302;28;20032;-68
2023/08/16 04:59:52;;;;;;;15.68;2.53;;;;;;;19.57;100.00;101413.25;5094035;28;20111;-68
2023/08/16 05:02:18;;;;;;;9.25;2.67;;;;;;;19.66;100.00;101418.09;5096163;28;20416;-68
2023/08/16 05:04:43;;;;;;;16.30;2.50;;;;;;;19.71;100.00;101420.13;5095931;28;20532;-69
2023/08/16 05:07:08;;;;;;;14.07;2.65;;;;;;;19.75;100.00;101418.56;5093213;28;20032;-69
2023/08/16 05:09:35;;;;;;;14.18;2.90;;;;;;;19.85;100.00;101412.44;5091005;28;20481;-68
2023/08/16 05:12:01;;;;;;;11.60;2.35;;;;;;;19.88;100.00;101417.41;5092931;28;20453;-67
2023/08/16 05:14:26;;;;;;;14.70;3.15;;;;;;;19.82;100.00;101408.28;5093602;28;20020;-68
2023/08/16 05:16:52;;;;;;;13.27;2.65;;;;;;;19.91;100.00;101422.38;5091444;28;21166;-68
2023/08/16 05:19:17;;;;;;;12.82;2.47;;;;;;;20.01;100.00;101421.75;5075093;28;20061;-67
2023/08/16 05:21:43;;;;;;;13.35;2.50;;;;;;;19.95;100.00;101418.09;5089758;28;20048;-68
2023/08/16 05:24:08;;;;;;;13.68;2.60;;;;;;;20.04;100.00;101416.59;5095410;28;20509;-72
2023/08/16 05:26:34;;;;;;;9.93;2.40;;;;;;;19.89;100.00;101405.41;5097161;28;20031;-67
2023/08/16 05:28:59;;;;;;;13.63;2.55;;;;;;;19.95;100.00;101426.28;5077662;28;20498;-68
2023/08/16 05:31:25;;;;;;;11.88;2.35;;;;;;;20.01;100.00;101438.13;5093298;28;20032;-68
2023/08/16 05:33:51;;;;;;;11.68;2.58;;;;;;;19.88;100.00;101420.16;5095129;28;20103;-67
2023/08/16 05:36:16;;;;;;;7.75;2.40;;;;;;;19.88;100.00;101436.53;5076158;28;20078;-67
2023/08/16 05:38:42;;;;;;;14.75;2.55;;;;;;;19.82;100.00;101421.13;5094836;28;20089;-68
2023/08/16 05:41:07;;;;;;;10.10;2.33;;;;;;;19.89;100.00;101433.53;5097218;28;20493;-68
2023/08/16 05:43:33;;;;;;;11.00;2.60;;;;;;;19.88;100.00;101426.44;5096933;28;20060;-67
2023/08/16 05:45:58;;;;;;;10.18;2.53;;;;;;;19.90;100.00;101435.22;5099020;28;20055;-68
2023/08/16 05:48:24;;;;;;;11.50;2.58;;;;;;;19.82;100.00;101427.41;5098699;28;20027;-68
2023/08/16 05:50:49;;;;;;;14.95;2.78;;;;;;;19.87;100.00;101430.25;5083268;28;20116;-67
2023/08/16 05:53:14;;;;;;;9.45;2.63;;;;;;;19.85;100.00;101426.91;5098500;28;20033;-68
2023/08/16 05:55:40;;;;;;;9.55;2.47;;;;;;;19.77;100.00;101421.88;5099066;28;20109;-66
2023/08/16 05:58:05;;;;;;;19.80;3.45;;;;;;;19.71;100.00;101431.88;5097677;28;20028;-67
2023/08/16 06:00:31;;;;;;;19.55;3.25;;;;;;;19.77;100.00;101430.06;5097976;28;20089;-66
2023/08/16 06:02:56;;;;;;;14.07;3.47;;;;;;;19.76;100.00;101428.38;5099207;28;20024;-66
2023/08/16 06:05:22;;;;;;;18.73;3.78;;;;;;;19.76;100.00;101427.56;5100075;28;20028;-67
2023/08/16 06:07:48;;;;;;;14.20;3.30;;;;;;;19.69;100.00;101428.53;5098621;28;20032;-67
2023/08/16 06:10:13;;;;;;;19.13;3.53;;;;;;;19.70;100.00;101426.63;5099842;28;20032;-68
2023/08/16 06:12:39;;;;;;;18.92;3.35;;;;;;;19.74;100.00;101440.66;5100985;28;20028;-69
2023/08/16 06:15:11;;;;;;;14.10;3.35;;;;;;;19.76;100.00;101430.28;5100601;28;20099;-68
2023/08/16 06:17:39;;;;;;;14.93;3.30;;;;;;;19.88;100.00;101429.16;5099496;28;20084;-74
2023/08/16 06:20:07;;;;;;;19.95;3.28;;;;;;;19.97;100.00;101437.81;5098350;28;20035;-67
2023/08/16 06:22:33;;;;;;;12.70;2.85;;;;;;;20.02;100.00;101439.78;5103061;28;20035;-69
2023/08/16 06:24:59;;;;;;;15.90;2.90;;;;;;;20.13;100.00;101445.19;5106154;28;20095;-68
2023/08/16 06:27:25;;;;;;;19.73;3.15;;;;;;;20.22;100.00;101440.13;5100177;28;20059;-66
2023/08/16 06:29:50;;;;;;;18.92;3.00;;;;;;;20.18;100.00;101439.78;5097350;28;20024;-68
2023/08/16 06:32:16;;;;;;;15.95;3.05;;;;;;;20.24;100.00;101426.22;5098800;28;20240;-67
2023/08/16 06:34:41;;;;;;;18.42;3.00;;;;;;;20.23;100.00;101424.53;5098509;28;20032;-70
2023/08/16 06:37:07;;;;;;;16.80;2.92;;;;;;;20.37;100.00;101447.75;5099678;28;20031;-67
2023/08/16 06:39:33;;;;;;;13.43;3.03;;;;;;;20.40;100.00;101447.25;5097316;28;20479;-67
2023/08/16 06:41:58;;;;;;;15.82;3.17;;;;;;;20.43;100.00;101444.03;5097653;28;20049;-67
2023/08/16 06:44:24;;;;;;;11.50;2.50;;;;;;;20.47;100.00;101441.63;5097842;28;20294;-67
2023/08/16 06:46:50;;;;;;;14.18;2.90;;;;;;;20.52;100.00;101433.53;5092872;28;20043;-67
2023/08/16 06:49:15;;;;;;;10.85;2.10;;;;;;;20.55;100.00;101443.97;5095829;28;20036;-67
2023/08/16 06:51:41;;;;;;;8.35;1.65;;;;;;;20.49;100.00;101432.06;5096420;28;20051;-68
2023/08/16 06:54:06;;;;;;;13.65;2.30;;;;;;;20.51;100.00;101437.34;5096344;28;20092;-67
2023/08/16 06:56:32;;;;;;;9.35;1.83;;;;;;;20.69;100.00;101460.84;5099339;28;20073;-68
2023/08/16 06:58:57;;;;;;;8.75;2.08;;;;;;;20.63;100.00;101468.16;5098308;28;20028;-69
2023/08/16 07:01:23;;;;;;;8.77;1.92;;;;;;;20.54;100.00;101440.41;5099392;28;20032;-75
2023/08/16 07:03:49;;;;;;;11.95;2.10;;;;;;;20.59;100.00;101443.19;5082975;28;20048;-76
2023/08/16 07:06:14;;;;;;;10.15;2.30;;;;;;;20.79;100.00;101450.03;5099407;28;20038;-69
2023/08/16 07:08:40;;;;;;;9.60;2.20;;;;;;;20.83;100.00;101443.00;5101234;28;20079;-68
2023/08/16 07:11:06;;;;;;;11.80;2.60;;;;;;;21.13;100.00;101461.75;5101305;28;20035;-68
2023/08/16 07:13:32;;;;;;;15.05;3.00;;;;;;;21.10;100.00;101457.59;5101158;28;20040;-68
2023/08/16 07:15:57;;;;;;;13.65;2.75;;;;;;;21.26;100.00;101461.38;5095235;28;20032;-68
2023/08/16 07:18:23;;;;;;;12.00;2.78;;;;;;;21.29;100.00;101462.75;5095538;28;20036;-67
2023/08/16 07:20:49;;;;;;;11.57;2.65;;;;;;;21.38;100.00;101463.19;5096947;28;20111;-67
2023/08/16 07:23:15;;;;;;;12.77;2.47;;;;;;;21.36;100.00;101468.91;5098371;28;20110;-68
2023/08/16 07:25:40;;;;;;;10.27;2.08;;;;;;;21.18;100.00;101471.94;5097270;28;20024;-67
2023/08/16 07:28:06;;;;;;;8.70;1.75;;;;;;;20.96;100.00;101472.75;5095521;28;20024;-68
2023/08/16 07:30:32;;;;;;;6.72;1.55;;;;;;;20.87;100.00;101480.53;5097400;28;20035;-68
2023/08/16 07:32:57;;;;;;;6.32;1.75;;;;;;;20.94;100.00;101476.81;5098111;28;20028;-68
2023/08/16 07:35:22;;;;;;;5.00;1.40;;;;;;;21.14;100.00;101479.81;5097796;28;20035;-68
2023/08/16 07:37:48;;;;;;;8.65;1.30;;;;;;;21.46;100.00;101477.25;5098005;28;20054;-68
2023/08/16 07:40:14;;;;;;;7.75;1.50;;;;;;;21.67;100.00;101482.97;5097746;28;20107;-69
2023/08/16 07:42:39;;;;;;;5.15;1.40;;;;;;;21.79;100.00;101481.75;5098216;28;20494;-68
2023/08/16 07:45:05;;;;;;;5.60;1.13;;;;;;;21.89;100.00;101470.06;5096270;28;20043;-68
2023/08/16 07:47:31;;;;;;;4.68;1.23;;;;;;;21.92;100.00;101480.50;5096429;28;20036;-68
2023/08/16 07:49:58;;;;;;;4.88;1.15;;;;;;;21.95;100.00;101485.47;5097542;28;20071;-68
2023/08/16 07:52:23;;;;;;;7.30;1.23;;;;;;;22.10;100.00;101483.97;5098080;28;20031;-68
2023/08/16 07:54:49;;;;;;;8.82;1.70;;;;;;;22.07;100.00;101468.03;5097126;28;20089;-68
2023/08/16 07:57:14;;;;;;;5.60;1.25;;;;;;;22.10;100.00;101479.31;5096562;28;20024;-68
2023/08/16 07:59:40;;;;;;;6.65;1.27;;;;;;;22.20;100.00;101481.34;5079483;28;20032;-68
2023/08/16 08:02:06;;;;;;;10.20;1.40;;;;;;;22.15;100.00;101487.63;5079249;28;20032;-68
2023/08/16 08:04:33;;;;;;;7.55;2.03;;;;;;;22.04;100.00;101491.28;5097383;28;20032;-68
2023/08/16 08:06:58;;;;;;;10.85;1.80;;;;;;;22.02;100.00;101477.88;5095926;28;20036;-68
2023/08/16 08:09:24;;;;;;;11.75;2.17;;;;;;;22.11;100.00;101493.84;5079389;28;20036;-68
2023/08/16 08:11:49;;;;;;;9.35;2.15;;;;;;;21.92;100.00;101485.13;5094665;28;20039;-68
2023/08/16 08:14:16;;;;;;;11.70;2.40;;;;;;;21.92;100.00;101482.41;5059875;28;20043;-68
2023/08/16 08:16:41;;;;;;;10.85;2.28;;;;;;;21.92;100.00;101487.88;5097677;28;20384;-68
2023/08/16 08:19:07;;;;;;;14.35;2.60;;;;;;;22.01;100.00;101500.03;5097965;28;20039;-69
2023/08/16 08:21:32;;;;;;;13.88;2.35;;;;;;;22.12;100.00;101499.06;5093547;28;20555;-68
2023/08/16 08:23:57;;;;;;;11.77;2.70;;;;;;;21.93;100.00;101493.13;5103262;28;20104;-69
2023/08/16 08:26:25;;;;;;;14.95;2.38;;;;;;;22.04;100.00;101500.34;5108334;28;20020;-69
2023/08/16 08:28:51;;;;;;;13.32;2.25;;;;;;;22.19;100.00;101504.38;5106390;28;20024;-73
2023/08/16 08:31:17;;;;;;;10.85;2.38;;;;;;;22.40;100.00;101500.72;5096607;28;20055;-70
2023/08/16 08:33:45;;;;;;;11.68;2.30;;;;;;;22.34;100.00;101487.22;5096203;28;20028;-69
2023/08/16 08:36:10;;;;;;;11.10;1.92;;;;;;;22.41;100.00;101498.78;5095731;28;20428;-68
2023/08/16 08:38:35;;;;;;;8.52;1.50;;;;;;;22.37;100.00;101508.63;5098372;28;20033;-69
2023/08/16 08:41:01;;;;;;;9.20;2.03;;;;;;;22.40;100.00;101516.34;5106743;28;20078;-69
2023/08/16 08:43:30;;;;;;;10.13;2.22;;;;;;;22.28;100.00;101514.59;5105670;28;20097;-68
2023/08/16 08:45:59;;;;;;;8.93;1.70;;;;;;;22.32;100.00;101514.91;5097225;28;20016;-69
2023/08/16 08:48:26;;;;;;;6.53;1.63;;;;;;;22.36;100.00;101523.44;5096789;28;20035;-69
2023/08/16 08:50:54;;;;;;;6.95;1.50;;;;;;;22.11;100.00;101504.78;5097063;28;20048;-69
2023/08/16 08:53:20;;;;;;;13.48;2.00;;;;;;;22.10;100.00;101523.16;5094871;28;20108;-68
2023/08/16 08:55:46;;;;;;;10.02;2.08;;;;;;;22.17;100.00;101522.97;5095065;28;20462;-70
2023/08/16 08:58:13;;;;;;;8.05;2.03;;;;;;;22.22;100.00;101523.88;5093898;28;20547;-70
2023/08/16 09:00:39;;;;;;;10.30;1.92;;;;;;;22.38;100.00;101518.50;5077379;28;20035;-69
2023/08/16 09:03:07;;;;;;;14.43;1.92;;;;;;;22.54;100.00;101524.94;5096650;28;20477;-68
2023/08/16 09:05:33;;;;;;;10.93;1.92;;;;;;;22.72;100.00;101525.38;5095818;28;20068;-68
2023/08/16 09:08:00;;;;;;;8.20;2.13;;;;;;;22.80;100.00;101512.25;5094012;28;20533;-68
2023/08/16 09:10:26;;;;;;;9.80;1.90;;;;;;;22.82;100.00;101512.84;5092480;28;20425;-69
2023/08/16 09:12:53;;;;;;;11.30;2.40;;;;;;;22.88;100.00;101526.34;5097656;28;20020;-69
2023/08/16 09:15:18;;;;;;;7.55;1.67;;;;;;;22.85;100.00;101531.53;5096947;28;20032;-69
2023/08/16 09:17:45;;;;;;;6.15;1.60;;;;;;;22.90;98.82;101521.38;5098381;28;20110;-68
2023/08/16 09:20:12;;;;;;;7.13;1.33;;;;;;;23.20;96.95;101539.16;5100732;28;20503;-71
2023/08/16 09:22:37;;;;;;;5.25;1.27;;;;;;;23.49;95.74;101547.03;5101267;28;20028;-68
2023/08/16 09:25:03;;;;;;;7.57;1.80;;;;;;;23.73;94.80;101531.75;5101132;28;20033;-69
2023/08/16 09:27:31;;;;;;;6.28;1.40;;;;;;;23.84;94.13;101536.19;5083085;28;20432;-69
2023/08/16 09:29:57;;;;;;;11.57;1.77;;;;;;;23.87;93.21;101538.41;5101169;28;20395;-69
2023/08/16 09:32:27;;;;;;;6.35;1.35;;;;;;;23.94;92.96;101540.06;5082396;28;20068;-69
2023/08/16 09:34:53;;;;;;;4.75;1.50;;;;;;;23.82;92.69;101530.13;5083774;28;20039;-68
2023/08/16 09:37:20;;;;;;;4.90;1.17;;;;;;;23.82;91.76;101548.56;5100559;28;20063;-68
2023/08/16 09:39:55;;;;;;;5.50;1.30;;;;;;;23.68;91.67;101542.75;5101242;28;20038;-68
2023/08/16 09:42:20;;;;;;;6.68;1.60;;;;;;;23.53;92.03;101553.63;5099882;28;20371;-69
2023/08/16 09:44:47;;;;;;;6.15;1.42;;;;;;;23.37;92.44;101556.28;5098887;28;20035;-69
2023/08/16 09:47:13;;;;;;;5.10;1.40;;;;;;;23.12;94.03;101558.91;5105167;28;20039;-70
2023/08/16 09:49:39;;;;;;;5.30;1.55;;;;;;;23.18;94.14;101561.41;5106064;28;20056;-69
2023/08/16 09:52:10;;;;;;;7.28;1.60;;;;;;;23.12;94.62;101567.13;5100295;28;20039;-69
2023/08/16 09:54:36;;;;;;;6.18;1.67;;;;;;;22.87;96.05;101567.75;5097972;28;20024;-69
2023/08/16 09:57:01;;;;;;;6.15;1.63;;;;;;;22.66;96.30;101569.50;5098109;28;20506;-68
2023/08/16 09:59:28;;;;;;;8.23;2.13;;;;;;;22.67;95.98;101563.75;5095834;28;20106;-73
2023/08/16 10:01:54;;;;;;;8.60;1.90;;;;;;;22.88;96.02;101574.88;5100347;28;20526;-69
2023/08/16 10:04:20;;;;;;;4.50;1.58;;;;;;;23.12;95.31;101569.88;5099818;28;20054;-68
2023/08/16 10:06:46;;;;;;;5.93;1.50;;;;;;;23.26;94.36;101567.50;5099828;28;20035;-69
2023/08/16 10:09:12;;;;;;;5.53;1.30;;;;;;;23.25;92.67;101563.94;5100461;28;20447;-69
2023/08/16 10:11:39;;;;;;;4.63;1.23;;;;;;;23.30;91.77;101566.69;5100727;28;20043;-69
2023/08/16 10:14:08;;;;;;;2.88;1.40;;;;;;;23.33;91.57;101560.66;5082421;28;20075;-69
2023/08/16 10:16:36;;;;;;;5.65;1.52;;;;;;;23.35;90.95;101566.72;5099195;28;20031;-70
2023/08/16 10:19:02;;;;;;;5.72;1.33;;;;;;;23.21;91.07;101562.78;5099638;28;20030;-69
2023/08/16 10:21:28;;;;;;;5.63;1.40;;;;;;;23.23;91.70;101577.09;5099206;28;20110;-70
2023/08/16 10:23:56;;;;;;;6.82;1.58;;;;;;;23.01;92.87;101574.44;5100744;28;20035;-69
2023/08/16 10:26:24;;;;;;;8.77;1.80;;;;;;;22.61;94.58;101573.00;5100698;28;20062;-68
2023/08/16 10:28:52;;;;;;;7.38;1.75;;;;;;;22.48;96.77;101589.91;5080687;28;20027;-70
2023/08/16 10:31:22;;;;;;;7.88;1.77;;;;;;;22.55;97.46;101600.66;5098037;28;20031;-69
2023/08/16 10:33:50;;;;;;;5.00;1.60;;;;;;;22.59;99.07;101597.16;5100858;28;20020;-69
2023/08/16 10:36:16;;;;;;;5.75;1.80;;;;;;;22.62;99.30;101598.56;5100079;28;20391;-69
2023/08/16 10:38:42;;;;;;;6.35;1.70;;;;;;;22.46;100.00;101603.88;5100130;28;20456;-69
2023/08/16 10:41:12;;;;;;;8.10;1.85;;;;;;;22.47;100.00;101611.00;5100293;28;20035;-68
2023/08/16 10:43:44;;;;;;;6.35;1.77;;;;;;;22.36;100.00;101603.78;5100977;28;20431;-70
2023/08/16 10:46:09;;;;;;;4.63;1.60;;;;;;;22.34;100.00;101592.22;5099309;28;20047;-68
2023/08/16 10:48:36;;;;;;;7.63;2.00;;;;;;;22.54;100.00;101601.75;5098567;28;20027;-73
2023/08/16 10:51:07;;;;;;;6.40;2.03;;;;;;;22.81;100.00;101607.19;5098957;28;20165;-70
2023/08/16 10:53:37;;;;;;;6.32;1.90;;;;;;;22.78;100.00;101608.56;5098620;28;20020;-70
2023/08/16 10:56:07;;;;;;;7.35;2.00;;;;;;;22.56;100.00;101607.81;5065871;28;20050;-70
2023/08/16 10:58:43;;;;;;;9.85;2.13;;;;;;;22.49;100.00;101597.06;5098604;28;20051;-71
2023/08/16 11:01:09;;;;;;;6.03;1.75;;;;;;;22.67;100.00;101612.31;5097173;28;20023;-69
2023/08/16 11:03:35;;;;;;;7.03;2.10;;;;;;;22.84;100.00;101612.16;5096076;28;20039;-70
2023/08/16 11:06:07;;;;;;;8.18;2.20;;;;;;;22.91;100.00;101594.41;5097464;28;20106;-70
2023/08/16 11:08:32;;;;;;;5.88;1.77;;;;;;;23.21;100.00;101617.69;5096754;28;20035;-69
2023/08/16 11:11:01;;;;;;;6.07;1.80;;;;;;;23.44;100.00;101613.72;5094399;28;20417;-68